Van Buren, Indiana
Current Conditions -  °F | °C
As of 2:55 PM on Sunday 23 Nov 2014 (Local Time) from KMZZ Reporting Station
Light Rain Light Rain  
Wind Chill: 53°   Ceiling: 2600
Heat Index: 53°   Visibility: 7mi
Dew Point: 50°   Wind: 8mph
Humidity: 91%   Direction: 150°SSE
Pressure: 29.62"   Gusts: NA
Location:  40.62°N, 85.5°W
Report Text: KMZZ 231955Z AUTO 15007KT 7SM -RA OVC026 11/10 A2962 RMK AO2 P0008 T01140099
Loading
Personal Weather Stations






























Interactive Weather Map New forecast layout! Learn more

10-Day Weather Forecast

Advertisements
Track Severe Weather on mobile